Calvin, Oklahoma
Current Conditions -  °F | °C
As of 11:55 AM on Saturday 22 Nov 2014 (Local Time) from KADH Reporting Station
Light Rain Light Rain  
Wind Chill: 11°   Ceiling: 400
Heat Index: 11°   Visibility: 10mi
Dew Point: 11°   Wind: 9mph
Humidity: 100%   Direction: 130°SE
Pressure: 30.01"   Gusts: NA
Location:  34.97°N, 96.25°W
Report Text: KADH 221755Z AUTO 13008KT 10SM -RA BKN004 BKN020 OVC028 11/11 A3001 RMK AO2 LTG DSNT NE SW AND W P0009
Loading
Personal Weather Stations






























Interactive Weather Map New forecast layout! Learn more

10-Day Weather Forecast

Advertisements
Track Severe Weather on mobile